Plato — 8PRX — position and weather

sailwx.info

Track history (hours):
 
Tides and Currents Weather Stations Pressure Air Temp Water Temp Dewpoint Dewpoint Depression Visibility Wind Speed Wind Dir Waves Ship Positions

Plato

Last reported at 2017-Sep-21 22:57 UTC. Time now 2017-Sep-22 10:18 UTC.
Position N 51°28' E 003°42'.

Length 89 m; draft 4.8 m.

Type: Cargo ship. MMSI: 314189000.

Date/timePositionNaut miles runAvg speedWind from/ knotsBaromVisibWave heightAir tempDewpointWater temp
2017-Sep-21 22:57N 51°28' E 003°42'0 0.0
2017-Sep-21 21:51N 51°28' E 003°42'0 0.0
2017-Sep-21 21:28N 51°28' E 003°42'0 0.0
2017-Sep-21 21:00N 51°28' E 003°42'0 0.4
2017-Sep-21 20:30N 51°28' E 003°41'4 7.2
2017-Sep-21 20:00N 51°26' E 003°36'4 8.1
2017-Sep-21 19:30N 51°28' E 003°31'5 9.0
2017-Sep-21 18:54N 51°32' E 003°25'3 8.4
2017-Sep-21 18:29N 51°36' E 003°23'98 9.0
2017-Sep-21 07:36N 52°54' E 001°48'211.7
2017-Sep-21 07:27N 52°56' E 001°47'911.4
2017-Sep-21 06:41N 53°02' E 001°37'211.4
2017-Sep-21 06:30N 53°04' E 001°35'65 9.5
2017-Sep-20 23:37N 53°35' W 000°01'211.6
2017-Sep-20 23:26N 53°36' W 000°04'5 9.8
2017-Sep-20 22:58N 53°38' W 000°11'0 0.0
2017-Sep-20 22:30N 53°38' W 000°11'0 0.4
2017-Sep-20 22:01N 53°38' W 000°12'0 0.1
2017-Sep-20 20:44N 53°38' W 000°12'0 0.0
2017-Sep-20 19:29N 53°38' W 000°12'0 0.0
2017-Sep-20 18:50N 53°38' W 000°12'0 0.0
2017-Sep-20 18:26N 53°38' W 000°12'0 0.0
2017-Sep-20 04:50N 53°38' W 000°12'0 0.0
2017-Sep-20 04:26N 53°38' W 000°12'0 0.0
2017-Sep-20 03:56N 53°38' W 000°12'0 0.0
2017-Sep-20 03:26N 53°38' W 000°12'0 0.0
2017-Sep-20 02:50N 53°38' W 000°12'0 0.0
2017-Sep-20 01:32N 53°38' W 000°12'0 0.0
2017-Sep-20 01:26N 53°38' W 000°12'0 0.0
2017-Sep-20 00:56N 53°38' W 000°12'0 0.0
2017-Sep-19 21:57N 53°38' W 000°12'0 0.5
2017-Sep-19 21:20N 53°38' W 000°11'0 1.0
2017-Sep-19 21:00N 53°38' W 000°11'4 8.6
2017-Sep-19 20:30N 53°42' W 000°14'510.7
2017-Sep-19 20:00N 53°43' W 000°23'5 0.2
2017-Sep-18 15:51N 53°41' W 000°31'3 8.1
2017-Sep-18 15:30N 53°42' W 000°27'4 8.2
2017-Sep-18 15:00N 53°43' W 000°20'4 7.6
2017-Sep-18 14:30N 53°42' W 000°14'5 9.0
2017-Sep-18 14:00N 53°39' W 000°10'4 8.4
2017-Sep-18 13:29N 53°36' W 000°04'283 7.5
2017-Sep-16 23:38N 54°05' E 007°54'1 9.3
2017-Sep-16 23:30N 54°04' E 007°56'5 9.7
2017-Sep-16 22:59N 54°02' E 008°03'510.0
2017-Sep-16 22:30N 54°00' E 008°11'510.7
2017-Sep-16 22:00N 53°60' E 008°20'611.2
2017-Sep-16 21:30N 53°59' E 008°30'510.1
2017-Sep-16 21:00N 53°57' E 008°38'4 8.9
2017-Sep-16 20:30N 53°54' E 008°42'4 8.1
2017-Sep-16 20:00N 53°51' E 008°47'4 7.8
2017-Sep-16 19:30N 53°51' E 008°54'4 7.5
2017-Sep-16 19:00N 53°51' E 009°00'4 7.7
2017-Sep-16 18:30N 53°53' E 009°06'4 7.5
2017-Sep-16 18:00N 53°53' E 009°13'5 9.4
2017-Sep-16 17:30N 53°51' E 009°20'611.2
2017-Sep-16 17:00N 53°46' E 009°24'611.3
2017-Sep-16 16:30N 53°41' E 009°30'611.4
2017-Sep-16 16:00N 53°36' E 009°35'611.8
2017-Sep-16 15:31N 53°34' E 009°44'611.1
2017-Sep-16 15:00N 53°32' E 009°53'1 2.6
2017-Sep-16 14:28N 53°31' E 009°54'0 0.0
2017-Sep-16 13:58N 53°31' E 009°54'0 0.0
2017-Sep-16 13:27N 53°31' E 009°54'0 0.0
2017-Sep-16 13:00N 53°31' E 009°54'0 0.0
2017-Sep-16 12:30N 53°31' E 009°54'0 0.0
2017-Sep-16 12:00N 53°31' E 009°54'0 0.0
2017-Sep-16 11:30N 53°31' E 009°54'0 0.0
2017-Sep-16 11:00N 53°31' E 009°54'0 0.0
2017-Sep-16 10:30N 53°31' E 009°54'0 0.0
2017-Sep-16 10:00N 53°31' E 009°54'0 0.0
2017-Sep-16 09:30N 53°31' E 009°54'0 0.0
2017-Sep-16 09:00N 53°31' E 009°54'0 0.0
2017-Sep-16 08:30N 53°31' E 009°54'0 0.0
2017-Sep-16 08:00N 53°31' E 009°54'0 0.0
2017-Sep-16 07:30N 53°31' E 009°54'0 0.0
2017-Sep-16 07:00N 53°31' E 009°54'0 0.0
2017-Sep-16 06:30N 53°31' E 009°54'0 0.0
2017-Sep-16 06:00N 53°31' E 009°54'0 0.0
2017-Sep-16 05:30N 53°31' E 009°54'0 0.0
2017-Sep-16 05:00N 53°31' E 009°54'0 0.0
2017-Sep-16 04:30N 53°31' E 009°54'0 0.0
2017-Sep-16 03:54N 53°31' E 009°54'0 0.0
2017-Sep-16 03:30N 53°31' E 009°54'0 0.0
2017-Sep-16 03:00N 53°31' E 009°54'0 0.0
2017-Sep-16 02:30N 53°31' E 009°54'0 0.0
2017-Sep-16 01:59N 53°31' E 009°54'0 0.0
2017-Sep-16 01:29N 53°31' E 009°54'0 0.0
2017-Sep-16 00:56N 53°31' E 009°54'0 0.0
2017-Sep-16 00:29N 53°31' E 009°54'0 0.0
2017-Sep-15 23:59N 53°31' E 009°54'0 0.0
2017-Sep-15 23:29N 53°31' E 009°54'0 0.0
2017-Sep-15 22:59N 53°31' E 009°54'0 0.0
2017-Sep-15 22:29N 53°31' E 009°54'0 0.0
2017-Sep-15 21:59N 53°31' E 009°54'0 0.0
2017-Sep-15 21:29N 53°31' E 009°54'0 0.0
2017-Sep-15 20:59N 53°31' E 009°54'0 0.0
2017-Sep-15 20:29N 53°31' E 009°54'0 0.0
2017-Sep-15 19:56N 53°31' E 009°54'0 0.0
2017-Sep-15 19:29N 53°31' E 009°54'0 0.0
2017-Sep-15 18:56N 53°31' E 009°54'0 0.0
2017-Sep-15 18:29N 53°31' E 009°54'0 0.0
2017-Sep-15 17:56N 53°31' E 009°54'0 0.0
2017-Sep-15 17:29N 53°31' E 009°54'0 0.0
2017-Sep-15 16:56N 53°31' E 009°54'0 0.0
2017-Sep-15 16:29N 53°31' E 009°54'0 0.0
2017-Sep-15 15:59N 53°31' E 009°54'0 0.0
2017-Sep-15 15:29N 53°31' E 009°54'0 0.0
2017-Sep-15 14:59N 53°31' E 009°54'0 0.0
2017-Sep-15 14:29N 53°31' E 009°54'0 0.0
2017-Sep-15 13:56N 53°31' E 009°54'0 0.0
2017-Sep-15 13:28N 53°31' E 009°54'0 0.0
2017-Sep-15 12:58N 53°31' E 009°54'0 0.0
2017-Sep-15 12:28N 53°31' E 009°54'0 0.0
2017-Sep-15 11:58N 53°31' E 009°54'0 0.0
2017-Sep-15 11:28N 53°31' E 009°54'0 0.0
2017-Sep-15 10:58N 53°31' E 009°54'0 0.0
2017-Sep-15 10:28N 53°31' E 009°54'0 0.0
2017-Sep-15 09:55N 53°31' E 009°54'0 0.0
2017-Sep-15 09:28N 53°31' E 009°54'0 0.0
2017-Sep-15 08:55N 53°31' E 009°54'0 0.0
2017-Sep-15 08:28N 53°31' E 009°54'0 0.0
2017-Sep-15 07:55N 53°31' E 009°54'0 0.0
2017-Sep-15 07:28N 53°31' E 009°54'0 0.0
2017-Sep-15 06:58N 53°31' E 009°54'0 0.0
2017-Sep-15 06:28N 53°31' E 009°54'0 0.0
2017-Sep-15 05:58N 53°31' E 009°54'0 0.0
2017-Sep-15 05:25N 53°31' E 009°54'0 0.0
2017-Sep-15 04:58N 53°31' E 009°54'0 0.0
2017-Sep-15 04:28N 53°31' E 009°54'0 0.1
2017-Sep-15 04:00N 53°31' E 009°54'2 3.1
2017-Sep-15 03:30N 53°32' E 009°52'3 6.7
2017-Sep-15 03:00N 53°33' E 009°47'4 7.8
2017-Sep-15 02:30N 53°34' E 009°40'4 8.0
2017-Sep-15 02:00N 53°36' E 009°35'4 7.6
2017-Sep-15 01:30N 53°39' E 009°31'0 0.3
2017-Sep-15 01:00N 53°39' E 009°31'0 0.0
2017-Sep-15 00:30N 53°39' E 009°31'0 0.0
2017-Sep-15 00:00N 53°39' E 009°31'0 0.0
2017-Sep-14 23:30N 53°39' E 009°31'0 0.0
2017-Sep-14 23:00N 53°39' E 009°31'0 0.0
2017-Sep-14 22:30N 53°39' E 009°31'0 0.0
2017-Sep-14 22:00N 53°39' E 009°31'0 0.0
2017-Sep-14 21:30N 53°39' E 009°31'0 0.0
2017-Sep-14 21:00N 53°39' E 009°31'0 0.0
2017-Sep-14 20:30N 53°39' E 009°31'0 0.0
2017-Sep-14 20:00N 53°39' E 009°31'0 0.0
2017-Sep-14 19:30N 53°39' E 009°31'0 0.0
2017-Sep-14 19:00N 53°39' E 009°31'0 0.0
2017-Sep-14 18:30N 53°39' E 009°31'0 0.0
2017-Sep-14 18:00N 53°39' E 009°31'0 0.0
2017-Sep-14 17:30N 53°39' E 009°31'0 0.0
2017-Sep-14 17:00N 53°39' E 009°31'0 0.0
2017-Sep-14 16:30N 53°39' E 009°31'0 0.0
2017-Sep-14 16:00N 53°39' E 009°31'0 0.0
2017-Sep-14 15:30N 53°39' E 009°31'0 0.0
2017-Sep-14 15:00N 53°39' E 009°31'0 0.0
2017-Sep-14 14:30N 53°39' E 009°31'0 0.0
2017-Sep-14 14:00N 53°39' E 009°31'0 0.0
2017-Sep-14 13:30N 53°39' E 009°31'0 0.0
2017-Sep-14 13:00N 53°39' E 009°31'0 0.0
2017-Sep-14 12:30N 53°39' E 009°31'0 0.1
2017-Sep-14 12:00N 53°39' E 009°31'0 0.0
2017-Sep-14 11:30N 53°39' E 009°31'0 0.0
2017-Sep-14 11:00N 53°39' E 009°31'0 0.0
2017-Sep-14 10:30N 53°39' E 009°31'0 0.0
2017-Sep-14 10:00N 53°39' E 009°31'0 0.0
2017-Sep-14 09:30N 53°39' E 009°31'0 0.0
2017-Sep-14 09:00N 53°39' E 009°31'0 0.0
2017-Sep-14 08:30N 53°39' E 009°31'0 0.0
2017-Sep-14 08:00N 53°39' E 009°31'0 0.0
2017-Sep-14 07:30N 53°39' E 009°31'0 0.0
2017-Sep-14 07:00N 53°39' E 009°31'0 0.0
2017-Sep-14 06:30N 53°39' E 009°31'0 0.0
2017-Sep-14 06:00N 53°39' E 009°31'0 0.0
2017-Sep-14 05:30N 53°39' E 009°31'0 0.0
2017-Sep-14 05:00N 53°39' E 009°31'0 0.0
2017-Sep-14 04:30N 53°39' E 009°31'0 0.0
2017-Sep-14 04:00N 53°39' E 009°31'0 0.0
2017-Sep-14 03:30N 53°39' E 009°31'0 0.0
2017-Sep-14 03:00N 53°39' E 009°31'0 0.0
2017-Sep-14 02:30N 53°39' E 009°31'0 0.0
2017-Sep-14 02:00N 53°39' E 009°31'0 0.0
2017-Sep-14 01:30N 53°39' E 009°31'0 0.0
2017-Sep-14 01:00N 53°39' E 009°31'0 0.0
2017-Sep-14 00:30N 53°39' E 009°31'0 0.0
2017-Sep-14 00:00N 53°39' E 009°31'0 0.0
2017-Sep-13 23:30N 53°39' E 009°31'0 0.0
2017-Sep-13 23:01N 53°39' E 009°31'0 0.0
2017-Sep-13 22:30N 53°39' E 009°31'0 0.0
2017-Sep-13 22:00N 53°39' E 009°31'0 0.0
2017-Sep-13 21:30N 53°39' E 009°31'0 0.0
2017-Sep-13 21:00N 53°39' E 009°31'0 0.0
2017-Sep-13 20:30N 53°39' E 009°31'0 0.0
2017-Sep-13 20:00N 53°39' E 009°31'0 0.0
2017-Sep-13 19:30N 53°39' E 009°31'0 0.0
2017-Sep-13 19:00N 53°39' E 009°31'0 0.0
2017-Sep-13 18:30N 53°39' E 009°31'0 0.0
2017-Sep-13 18:00N 53°39' E 009°31'0 0.0
2017-Sep-13 17:30N 53°39' E 009°31'0 0.0
2017-Sep-13 17:00N 53°39' E 009°31'0 0.0
2017-Sep-13 16:30N 53°39' E 009°31'0 0.0
2017-Sep-13 16:00N 53°39' E 009°31'0 0.0
2017-Sep-13 15:30N 53°39' E 009°31'0 0.0
2017-Sep-13 15:00N 53°39' E 009°31'0 0.0
2017-Sep-13 14:30N 53°39' E 009°31'0 0.0
2017-Sep-13 14:00N 53°39' E 009°31'0 0.0
2017-Sep-13 13:30N 53°39' E 009°31'0 0.0
2017-Sep-13 13:00N 53°39' E 009°31'0 0.0
2017-Sep-13 12:30N 53°39' E 009°31'0 0.0
2017-Sep-13 12:00N 53°39' E 009°31'0 0.0
2017-Sep-13 11:30N 53°39' E 009°31'0 0.0
2017-Sep-13 11:00N 53°39' E 009°31'0 0.0
2017-Sep-13 10:30N 53°39' E 009°31'0 0.0
2017-Sep-13 10:00N 53°39' E 009°31'0 0.0
2017-Sep-13 09:30N 53°39' E 009°31'0 0.0
2017-Sep-13 09:00N 53°39' E 009°31'0 0.0
2017-Sep-13 08:29N 53°39' E 009°31'0 0.0
2017-Sep-13 08:00N 53°39' E 009°31'0 0.0
2017-Sep-13 07:30N 53°39' E 009°31'0 0.0
2017-Sep-13 07:00N 53°39' E 009°31'0 0.0
2017-Sep-13 06:30N 53°39' E 009°31'0 0.0
2017-Sep-13 06:00N 53°39' E 009°31'0 0.0
2017-Sep-13 05:30N 53°39' E 009°31'0 0.0
2017-Sep-13 05:00N 53°39' E 009°31'0 0.0
2017-Sep-13 04:30N 53°39' E 009°31'0 0.0
2017-Sep-13 04:00N 53°39' E 009°31'0 0.0
2017-Sep-13 03:30N 53°39' E 009°31'0 0.0
2017-Sep-13 03:00N 53°39' E 009°31'0 0.0
2017-Sep-13 02:30N 53°39' E 009°31'0 0.0
2017-Sep-13 02:00N 53°39' E 009°31'2 4.1
2017-Sep-13 01:30N 53°41' E 009°30'4 8.0
2017-Sep-13 01:00N 53°44' E 009°26'4 7.4
2017-Sep-13 00:30N 53°48' E 009°23'4 7.2
2017-Sep-13 00:00N 53°51' E 009°19'4 7.3
2017-Sep-12 23:30N 53°53' E 009°14'4 7.1
2017-Sep-12 23:00N 53°53' E 009°08'1 1.4
2017-Sep-12 22:30N 53°54' E 009°09'1 1.9
2017-Sep-12 22:00N 53°54' E 009°10'4 9.0
2017-Sep-12 21:30N 53°58' E 009°15'4 8.7
2017-Sep-12 21:00N 54°02' E 009°18'57 6.8
2017-Sep-12 12:45N 54°35' E 010°36'2 9.4
2017-Sep-12 12:30N 54°35' E 010°40'5 9.7
2017-Sep-12 12:00N 54°35' E 010°49'5 9.7
2017-Sep-12 11:30N 54°36' E 010°57'5 9.8
2017-Sep-12 11:00N 54°36' E 011°06'5 9.6
2017-Sep-12 10:30N 54°35' E 011°13'510.3
2017-Sep-12 10:00N 54°33' E 011°22'510.2
2017-Sep-12 09:30N 54°31' E 011°30'5 9.4
2017-Sep-12 09:00N 54°30' E 011°38'4 8.8
2017-Sep-12 08:30N 54°29' E 011°45'4 8.7
2017-Sep-12 08:00N 54°28' E 011°52'5 9.0
2017-Sep-12 07:30N 54°27' E 011°60'17 7.7
2017-Sep-12 05:18N 54°39' E 012°20'3 8.9
2017-Sep-12 05:00N 54°41' E 012°24'4 9.0
2017-Sep-12 04:30N 54°43' E 012°30'  
Track history (hours):
 
Tides and Currents Weather Stations Pressure Air Temp Water Temp Dewpoint Dewpoint Depression Visibility Wind Speed Wind Dir Waves Ship Positions

Plato

Last reported at 2017-Sep-21 22:57 UTC. Time now 2017-Sep-22 10:18 UTC.
Position N 51°28' E 003°42'.

Length 89 m; draft 4.8 m.

Type: Cargo ship. MMSI: 314189000.

Date/timePositionNaut miles runAvg speedWind from/ knotsBaromVisibWave heightAir tempDewpointWater temp
2017-Sep-21 22:57N 51°28' E 003°42'0 0.0
2017-Sep-21 21:51N 51°28' E 003°42'0 0.0
2017-Sep-21 21:28N 51°28' E 003°42'0 0.0
2017-Sep-21 21:00N 51°28' E 003°42'0 0.4
2017-Sep-21 20:30N 51°28' E 003°41'4 7.2
2017-Sep-21 20:00N 51°26' E 003°36'4 8.1
2017-Sep-21 19:30N 51°28' E 003°31'5 9.0
2017-Sep-21 18:54N 51°32' E 003°25'3 8.4
2017-Sep-21 18:29N 51°36' E 003°23'98 9.0
2017-Sep-21 07:36N 52°54' E 001°48'211.7
2017-Sep-21 07:27N 52°56' E 001°47'911.4
2017-Sep-21 06:41N 53°02' E 001°37'211.4
2017-Sep-21 06:30N 53°04' E 001°35'65 9.5
2017-Sep-20 23:37N 53°35' W 000°01'211.6
2017-Sep-20 23:26N 53°36' W 000°04'5 9.8
2017-Sep-20 22:58N 53°38' W 000°11'0 0.0
2017-Sep-20 22:30N 53°38' W 000°11'0 0.4
2017-Sep-20 22:01N 53°38' W 000°12'0 0.1
2017-Sep-20 20:44N 53°38' W 000°12'0 0.0
2017-Sep-20 19:29N 53°38' W 000°12'0 0.0
2017-Sep-20 18:50N 53°38' W 000°12'0 0.0
2017-Sep-20 18:26N 53°38' W 000°12'0 0.0
2017-Sep-20 04:50N 53°38' W 000°12'0 0.0
2017-Sep-20 04:26N 53°38' W 000°12'0 0.0
2017-Sep-20 03:56N 53°38' W 000°12'0 0.0
2017-Sep-20 03:26N 53°38' W 000°12'0 0.0
2017-Sep-20 02:50N 53°38' W 000°12'0 0.0
2017-Sep-20 01:32N 53°38' W 000°12'0 0.0
2017-Sep-20 01:26N 53°38' W 000°12'0 0.0
2017-Sep-20 00:56N 53°38' W 000°12'0 0.0
2017-Sep-19 21:57N 53°38' W 000°12'0 0.5
2017-Sep-19 21:20N 53°38' W 000°11'0 1.0
2017-Sep-19 21:00N 53°38' W 000°11'4 8.6
2017-Sep-19 20:30N 53°42' W 000°14'510.7
2017-Sep-19 20:00N 53°43' W 000°23'5 0.2
2017-Sep-18 15:51N 53°41' W 000°31'3 8.1
2017-Sep-18 15:30N 53°42' W 000°27'4 8.2
2017-Sep-18 15:00N 53°43' W 000°20'4 7.6
2017-Sep-18 14:30N 53°42' W 000°14'5 9.0
2017-Sep-18 14:00N 53°39' W 000°10'4 8.4
2017-Sep-18 13:29N 53°36' W 000°04'283 7.5
2017-Sep-16 23:38N 54°05' E 007°54'1 9.3
2017-Sep-16 23:30N 54°04' E 007°56'5 9.7
2017-Sep-16 22:59N 54°02' E 008°03'510.0
2017-Sep-16 22:30N 54°00' E 008°11'510.7
2017-Sep-16 22:00N 53°60' E 008°20'611.2
2017-Sep-16 21:30N 53°59' E 008°30'510.1
2017-Sep-16 21:00N 53°57' E 008°38'4 8.9
2017-Sep-16 20:30N 53°54' E 008°42'4 8.1
2017-Sep-16 20:00N 53°51' E 008°47'4 7.8
2017-Sep-16 19:30N 53°51' E 008°54'4 7.5
2017-Sep-16 19:00N 53°51' E 009°00'4 7.7
2017-Sep-16 18:30N 53°53' E 009°06'4 7.5
2017-Sep-16 18:00N 53°53' E 009°13'5 9.4
2017-Sep-16 17:30N 53°51' E 009°20'611.2
2017-Sep-16 17:00N 53°46' E 009°24'611.3
2017-Sep-16 16:30N 53°41' E 009°30'611.4
2017-Sep-16 16:00N 53°36' E 009°35'611.8
2017-Sep-16 15:31N 53°34' E 009°44'611.1
2017-Sep-16 15:00N 53°32' E 009°53'1 2.6
2017-Sep-16 14:28N 53°31' E 009°54'0 0.0
2017-Sep-16 13:58N 53°31' E 009°54'0 0.0
2017-Sep-16 13:27N 53°31' E 009°54'0 0.0
2017-Sep-16 13:00N 53°31' E 009°54'0 0.0
2017-Sep-16 12:30N 53°31' E 009°54'0 0.0
2017-Sep-16 12:00N 53°31' E 009°54'0 0.0
2017-Sep-16 11:30N 53°31' E 009°54'0 0.0
2017-Sep-16 11:00N 53°31' E 009°54'0 0.0
2017-Sep-16 10:30N 53°31' E 009°54'0 0.0
2017-Sep-16 10:00N 53°31' E 009°54'0 0.0
2017-Sep-16 09:30N 53°31' E 009°54'0 0.0
2017-Sep-16 09:00N 53°31' E 009°54'0 0.0
2017-Sep-16 08:30N 53°31' E 009°54'0 0.0
2017-Sep-16 08:00N 53°31' E 009°54'0 0.0
2017-Sep-16 07:30N 53°31' E 009°54'0 0.0
2017-Sep-16 07:00N 53°31' E 009°54'0 0.0
2017-Sep-16 06:30N 53°31' E 009°54'0 0.0
2017-Sep-16 06:00N 53°31' E 009°54'0 0.0
2017-Sep-16 05:30N 53°31' E 009°54'0 0.0
2017-Sep-16 05:00N 53°31' E 009°54'0 0.0
2017-Sep-16 04:30N 53°31' E 009°54'0 0.0
2017-Sep-16 03:54N 53°31' E 009°54'0 0.0
2017-Sep-16 03:30N 53°31' E 009°54'0 0.0
2017-Sep-16 03:00N 53°31' E 009°54'0 0.0
2017-Sep-16 02:30N 53°31' E 009°54'0 0.0
2017-Sep-16 01:59N 53°31' E 009°54'0 0.0
2017-Sep-16 01:29N 53°31' E 009°54'0 0.0
2017-Sep-16 00:56N 53°31' E 009°54'0 0.0
2017-Sep-16 00:29N 53°31' E 009°54'0 0.0
2017-Sep-15 23:59N 53°31' E 009°54'0 0.0
2017-Sep-15 23:29N 53°31' E 009°54'0 0.0
2017-Sep-15 22:59N 53°31' E 009°54'0 0.0
2017-Sep-15 22:29N 53°31' E 009°54'0 0.0
2017-Sep-15 21:59N 53°31' E 009°54'0 0.0
2017-Sep-15 21:29N 53°31' E 009°54'0 0.0
2017-Sep-15 20:59N 53°31' E 009°54'0 0.0
2017-Sep-15 20:29N 53°31' E 009°54'0 0.0
2017-Sep-15 19:56N 53°31' E 009°54'0 0.0
2017-Sep-15 19:29N 53°31' E 009°54'0 0.0
2017-Sep-15 18:56N 53°31' E 009°54'0 0.0
2017-Sep-15 18:29N 53°31' E 009°54'0 0.0
2017-Sep-15 17:56N 53°31' E 009°54'0 0.0
2017-Sep-15 17:29N 53°31' E 009°54'0 0.0
2017-Sep-15 16:56N 53°31' E 009°54'0 0.0
2017-Sep-15 16:29N 53°31' E 009°54'0 0.0
2017-Sep-15 15:59N 53°31' E 009°54'0 0.0
2017-Sep-15 15:29N 53°31' E 009°54'0 0.0
2017-Sep-15 14:59N 53°31' E 009°54'0 0.0
2017-Sep-15 14:29N 53°31' E 009°54'0 0.0
2017-Sep-15 13:56N 53°31' E 009°54'0 0.0
2017-Sep-15 13:28N 53°31' E 009°54'0 0.0
2017-Sep-15 12:58N 53°31' E 009°54'0 0.0
2017-Sep-15 12:28N 53°31' E 009°54'0 0.0
2017-Sep-15 11:58N 53°31' E 009°54'0 0.0
2017-Sep-15 11:28N 53°31' E 009°54'0 0.0
2017-Sep-15 10:58N 53°31' E 009°54'0 0.0
2017-Sep-15 10:28N 53°31' E 009°54'0 0.0
2017-Sep-15 09:55N 53°31' E 009°54'0 0.0
2017-Sep-15 09:28N 53°31' E 009°54'0 0.0
2017-Sep-15 08:55N 53°31' E 009°54'0 0.0
2017-Sep-15 08:28N 53°31' E 009°54'0 0.0
2017-Sep-15 07:55N 53°31' E 009°54'0 0.0
2017-Sep-15 07:28N 53°31' E 009°54'0 0.0
2017-Sep-15 06:58N 53°31' E 009°54'0 0.0
2017-Sep-15 06:28N 53°31' E 009°54'0 0.0
2017-Sep-15 05:58N 53°31' E 009°54'0 0.0
2017-Sep-15 05:25N 53°31' E 009°54'0 0.0
2017-Sep-15 04:58N 53°31' E 009°54'0 0.0
2017-Sep-15 04:28N 53°31' E 009°54'0 0.1
2017-Sep-15 04:00N 53°31' E 009°54'2 3.1
2017-Sep-15 03:30N 53°32' E 009°52'3 6.7
2017-Sep-15 03:00N 53°33' E 009°47'4 7.8
2017-Sep-15 02:30N 53°34' E 009°40'4 8.0
2017-Sep-15 02:00N 53°36' E 009°35'4 7.6
2017-Sep-15 01:30N 53°39' E 009°31'0 0.3
2017-Sep-15 01:00N 53°39' E 009°31'0 0.0
2017-Sep-15 00:30N 53°39' E 009°31'0 0.0
2017-Sep-15 00:00N 53°39' E 009°31'0 0.0
2017-Sep-14 23:30N 53°39' E 009°31'0 0.0
2017-Sep-14 23:00N 53°39' E 009°31'0 0.0
2017-Sep-14 22:30N 53°39' E 009°31'0 0.0
2017-Sep-14 22:00N 53°39' E 009°31'0 0.0
2017-Sep-14 21:30N 53°39' E 009°31'0 0.0
2017-Sep-14 21:00N 53°39' E 009°31'0 0.0
2017-Sep-14 20:30N 53°39' E 009°31'0 0.0
2017-Sep-14 20:00N 53°39' E 009°31'0 0.0
2017-Sep-14 19:30N 53°39' E 009°31'0 0.0
2017-Sep-14 19:00N 53°39' E 009°31'0 0.0
2017-Sep-14 18:30N 53°39' E 009°31'0 0.0
2017-Sep-14 18:00N 53°39' E 009°31'0 0.0
2017-Sep-14 17:30N 53°39' E 009°31'0 0.0
2017-Sep-14 17:00N 53°39' E 009°31'0 0.0
2017-Sep-14 16:30N 53°39' E 009°31'0 0.0
2017-Sep-14 16:00N 53°39' E 009°31'0 0.0
2017-Sep-14 15:30N 53°39' E 009°31'0 0.0
2017-Sep-14 15:00N 53°39' E 009°31'0 0.0
2017-Sep-14 14:30N 53°39' E 009°31'0 0.0
2017-Sep-14 14:00N 53°39' E 009°31'0 0.0
2017-Sep-14 13:30N 53°39' E 009°31'0 0.0
2017-Sep-14 13:00N 53°39' E 009°31'0 0.0
2017-Sep-14 12:30N 53°39' E 009°31'0 0.1
2017-Sep-14 12:00N 53°39' E 009°31'0 0.0
2017-Sep-14 11:30N 53°39' E 009°31'0 0.0
2017-Sep-14 11:00N 53°39' E 009°31'0 0.0
2017-Sep-14 10:30N 53°39' E 009°31'0 0.0
2017-Sep-14 10:00N 53°39' E 009°31'0 0.0
2017-Sep-14 09:30N 53°39' E 009°31'0 0.0
2017-Sep-14 09:00N 53°39' E 009°31'0 0.0
2017-Sep-14 08:30N 53°39' E 009°31'0 0.0
2017-Sep-14 08:00N 53°39' E 009°31'0 0.0
2017-Sep-14 07:30N 53°39' E 009°31'0 0.0
2017-Sep-14 07:00N 53°39' E 009°31'0 0.0
2017-Sep-14 06:30N 53°39' E 009°31'0 0.0
2017-Sep-14 06:00N 53°39' E 009°31'0 0.0
2017-Sep-14 05:30N 53°39' E 009°31'0 0.0
2017-Sep-14 05:00N 53°39' E 009°31'0 0.0
2017-Sep-14 04:30N 53°39' E 009°31'0 0.0
2017-Sep-14 04:00N 53°39' E 009°31'0 0.0
2017-Sep-14 03:30N 53°39' E 009°31'0 0.0
2017-Sep-14 03:00N 53°39' E 009°31'0 0.0
2017-Sep-14 02:30N 53°39' E 009°31'0 0.0
2017-Sep-14 02:00N 53°39' E 009°31'0 0.0
2017-Sep-14 01:30N 53°39' E 009°31'0 0.0
2017-Sep-14 01:00N 53°39' E 009°31'0 0.0
2017-Sep-14 00:30N 53°39' E 009°31'0 0.0
2017-Sep-14 00:00N 53°39' E 009°31'0 0.0
2017-Sep-13 23:30N 53°39' E 009°31'0 0.0
2017-Sep-13 23:01N 53°39' E 009°31'0 0.0
2017-Sep-13 22:30N 53°39' E 009°31'0 0.0
2017-Sep-13 22:00N 53°39' E 009°31'0 0.0
2017-Sep-13 21:30N 53°39' E 009°31'0 0.0
2017-Sep-13 21:00N 53°39' E 009°31'0 0.0
2017-Sep-13 20:30N 53°39' E 009°31'0 0.0
2017-Sep-13 20:00N 53°39' E 009°31'0 0.0
2017-Sep-13 19:30N 53°39' E 009°31'0 0.0
2017-Sep-13 19:00N 53°39' E 009°31'0 0.0
2017-Sep-13 18:30N 53°39' E 009°31'0 0.0
2017-Sep-13 18:00N 53°39' E 009°31'0 0.0
2017-Sep-13 17:30N 53°39' E 009°31'0 0.0
2017-Sep-13 17:00N 53°39' E 009°31'0 0.0
2017-Sep-13 16:30N 53°39' E 009°31'0 0.0
2017-Sep-13 16:00N 53°39' E 009°31'0 0.0
2017-Sep-13 15:30N 53°39' E 009°31'0 0.0
2017-Sep-13 15:00N 53°39' E 009°31'0 0.0
2017-Sep-13 14:30N 53°39' E 009°31'0 0.0
2017-Sep-13 14:00N 53°39' E 009°31'0 0.0
2017-Sep-13 13:30N 53°39' E 009°31'0 0.0
2017-Sep-13 13:00N 53°39' E 009°31'0 0.0
2017-Sep-13 12:30N 53°39' E 009°31'0 0.0
2017-Sep-13 12:00N 53°39' E 009°31'0 0.0
2017-Sep-13 11:30N 53°39' E 009°31'0 0.0
2017-Sep-13 11:00N 53°39' E 009°31'0 0.0
2017-Sep-13 10:30N 53°39' E 009°31'0 0.0
2017-Sep-13 10:00N 53°39' E 009°31'0 0.0
2017-Sep-13 09:30N 53°39' E 009°31'0 0.0
2017-Sep-13 09:00N 53°39' E 009°31'0 0.0
2017-Sep-13 08:29N 53°39' E 009°31'0 0.0
2017-Sep-13 08:00N 53°39' E 009°31'0 0.0
2017-Sep-13 07:30N 53°39' E 009°31'0 0.0
2017-Sep-13 07:00N 53°39' E 009°31'0 0.0
2017-Sep-13 06:30N 53°39' E 009°31'0 0.0
2017-Sep-13 06:00N 53°39' E 009°31'0 0.0
2017-Sep-13 05:30N 53°39' E 009°31'0 0.0
2017-Sep-13 05:00N 53°39' E 009°31'0 0.0
2017-Sep-13 04:30N 53°39' E 009°31'0 0.0
2017-Sep-13 04:00N 53°39' E 009°31'0 0.0
2017-Sep-13 03:30N 53°39' E 009°31'0 0.0
2017-Sep-13 03:00N 53°39' E 009°31'0 0.0
2017-Sep-13 02:30N 53°39' E 009°31'0 0.0
2017-Sep-13 02:00N 53°39' E 009°31'2 4.1
2017-Sep-13 01:30N 53°41' E 009°30'4 8.0
2017-Sep-13 01:00N 53°44' E 009°26'4 7.4
2017-Sep-13 00:30N 53°48' E 009°23'4 7.2
2017-Sep-13 00:00N 53°51' E 009°19'4 7.3
2017-Sep-12 23:30N 53°53' E 009°14'4 7.1
2017-Sep-12 23:00N 53°53' E 009°08'1 1.4
2017-Sep-12 22:30N 53°54' E 009°09'1 1.9
2017-Sep-12 22:00N 53°54' E 009°10'4 9.0
2017-Sep-12 21:30N 53°58' E 009°15'4 8.7
2017-Sep-12 21:00N 54°02' E 009°18'57 6.8
2017-Sep-12 12:45N 54°35' E 010°36'2 9.4
2017-Sep-12 12:30N 54°35' E 010°40'5 9.7
2017-Sep-12 12:00N 54°35' E 010°49'5 9.7
2017-Sep-12 11:30N 54°36' E 010°57'5 9.8
2017-Sep-12 11:00N 54°36' E 011°06'5 9.6
2017-Sep-12 10:30N 54°35' E 011°13'510.3
2017-Sep-12 10:00N 54°33' E 011°22'510.2
2017-Sep-12 09:30N 54°31' E 011°30'5 9.4
2017-Sep-12 09:00N 54°30' E 011°38'4 8.8
2017-Sep-12 08:30N 54°29' E 011°45'4 8.7
2017-Sep-12 08:00N 54°28' E 011°52'5 9.0
2017-Sep-12 07:30N 54°27' E 011°60'17 7.7
2017-Sep-12 05:18N 54°39' E 012°20'3 8.9
2017-Sep-12 05:00N 54°41' E 012°24'4 9.0
2017-Sep-12 04:30N 54°43' E 012°30'  

Dump ship's entire track history